10:01
Airports
History
Links
Donate
Help keep this website running!
PayPal
Bitcoin
This page is community maintained. The information is intended for PC simulator navigation or reference.
Always use approved charts for navigation.
BIAR
AKUREYRI
AKUREYRI (BIAR)
Akureyri, Northeast, Iceland (600)
(C)
Lat/Lng:65° 39' 31.07" N / 18° 4' 20.5" W
65.658631 / -18.072361
Elevation:6'ft / 2mMSL
ID / ICAO:BIAR
Runways:1
Longest:01-19
Asphalt 1,931m / 6,336ft
Controlled:Yes
METAR09:00 GMT 2017-11-18
Altimeter: 30.18
Visibility: 6.2 statute miles
Wind: 2 knots (from 180°)
Temp: -5°c / 23°f
Humidity: 85.8%

METAR: BIAR 180900Z 18002KT 9999 BKN047 M05/M07 Q1022 R01/390195 RMK RWY SANDED

(Powered by phpweather)
Airport Radio Frequencies
Tower: 118.2
Approach: 118.7
Nearby VORs <50NM
Nearby NDBs
Runway 01 / 19
Dimensions:1931.2 x 45.1m 6336' x 148'ft
Surface:Asphalt
Edge Lights:High intensity
Runway 01 [A]Runway 19 [B]
Heading:355°TH 175°TH
Lat:
Lng:
65° 38' 59.85"N
18° 4' 14.6"W
65° 40' 2.29"N
18° 4' 26.4"W
ALS:RAIL
TDZ:Yes, lighted
User Notes and Comments
65° 39' 31.07" N / 18° 4' 20.5" W
Distance To
Airport ID:
Nearby Airports
4 Melgerdismelar 12.4 NM
BIMM SSW 192°
4 Hrisey 25.3 NM
BIHY NNW 338°
(C) HUSAVIK 27.3 NM
BIHU NE 42°
4 Reykjahlid 32.8 NM
BIRL E 90°
4 Olafsfjordur 33.8 NM
BIOF NNW 330°
(U) SIGLUFJORDUR 40.5 NM
BISI NW 324°
(C) Saudarkrokur 43.0 NM
BIKR W 276°
VFR Chart
Flight Planning at SkyVector.com